createdAt,value
2023-03-23T00:02:46.469Z,10.99
2023-03-23T00:07:46.426Z,10.84
2023-03-23T00:12:46.419Z,10.87
2023-03-23T00:17:46.366Z,10.88
2023-03-23T00:22:46.357Z,10.86
2023-03-23T00:27:46.300Z,10.86
2023-03-23T00:32:46.256Z,10.78
2023-03-23T00:37:46.245Z,10.72
2023-03-23T00:42:46.233Z,10.62
2023-03-23T00:47:46.184Z,10.65
2023-03-23T00:52:46.142Z,10.66
2023-03-23T00:57:46.101Z,10.65
2023-03-23T01:02:47.706Z,10.55
2023-03-23T01:07:46.056Z,10.47
2023-03-23T01:12:45.997Z,10.46
2023-03-23T01:17:45.987Z,10.46
2023-03-23T01:22:45.944Z,10.65
2023-03-23T01:27:45.929Z,10.93
2023-03-23T01:32:47.558Z,11.01
2023-03-23T01:37:45.834Z,11.05
2023-03-23T01:42:45.832Z,11.19
2023-03-23T01:47:45.786Z,11.36
2023-03-23T01:52:45.764Z,11.49
2023-03-23T01:57:45.719Z,11.64
2023-03-23T02:02:45.683Z,11.74
2023-03-23T02:07:45.636Z,11.88
2023-03-23T02:12:45.582Z,12.01
2023-03-23T02:17:45.574Z,12.08
2023-03-23T02:22:45.592Z,12.11
2023-03-23T02:27:45.525Z,12.15
2023-03-23T02:32:45.489Z,12.22
2023-03-23T02:37:45.430Z,12.22
2023-03-23T02:42:45.433Z,12.18
2023-03-23T02:47:45.411Z,12.07
2023-03-23T02:52:45.406Z,12.12
2023-03-23T02:57:45.348Z,12.13
2023-03-23T03:02:45.347Z,12.13
2023-03-23T03:07:45.383Z,12.08
2023-03-23T03:12:45.251Z,12.11
2023-03-23T03:17:45.230Z,12.22
2023-03-23T03:22:45.220Z,12.11
2023-03-23T03:27:45.177Z,11.87
2023-03-23T03:32:45.126Z,11.66
2023-03-23T03:37:45.118Z,11.49
2023-03-23T03:42:45.102Z,11.39
2023-03-23T03:47:45.045Z,11.38
2023-03-23T03:52:45.035Z,11.36
2023-03-23T03:57:45.029Z,11.38
2023-03-23T04:02:44.980Z,11.33
2023-03-23T04:07:44.976Z,11.36
2023-03-23T04:12:44.966Z,11.39
2023-03-23T04:17:44.896Z,11.41
2023-03-23T04:22:44.888Z,11.48
2023-03-23T04:27:44.839Z,11.46
2023-03-23T04:32:44.824Z,11.49
2023-03-23T04:37:44.785Z,11.42
2023-03-23T04:42:44.756Z,11.74
2023-03-23T04:47:44.707Z,11.94
2023-03-23T04:52:44.697Z,12.03
2023-03-23T04:57:44.644Z,11.85
2023-03-23T05:02:44.603Z,11.75
2023-03-23T05:07:44.584Z,11.60
2023-03-23T05:12:44.542Z,11.42
2023-03-23T05:17:44.498Z,11.23
2023-03-23T05:22:44.452Z,11.06
2023-03-23T05:27:44.440Z,10.93
2023-03-23T05:32:44.431Z,10.88
2023-03-23T05:37:44.395Z,10.76
2023-03-23T05:42:44.335Z,10.65
2023-03-23T05:47:44.349Z,10.58
2023-03-23T05:52:44.286Z,10.55
2023-03-23T05:57:44.242Z,10.49
2023-03-23T06:02:44.202Z,10.43
2023-03-23T06:07:44.185Z,10.36
2023-03-23T06:12:44.137Z,10.34
2023-03-23T06:17:44.102Z,10.31
2023-03-23T06:22:44.064Z,10.34
2023-03-23T06:27:44.043Z,10.38
2023-03-23T06:32:44.032Z,10.38
2023-03-23T06:37:44.018Z,10.39
2023-03-23T06:42:43.958Z,10.39
2023-03-23T06:47:43.991Z,10.36
2023-03-23T06:52:43.943Z,10.35
2023-03-23T06:57:44.314Z,10.35
2023-03-23T07:02:43.898Z,10.32
2023-03-23T07:07:43.838Z,10.32
2023-03-23T07:12:43.812Z,10.43
2023-03-23T07:17:43.808Z,10.46
2023-03-23T07:22:43.738Z,10.51
2023-03-23T07:27:43.729Z,10.55
2023-03-23T07:32:45.314Z,10.66
2023-03-23T07:37:43.697Z,10.72
2023-03-23T07:42:43.698Z,10.75
2023-03-23T07:47:43.650Z,10.91
2023-03-23T07:52:43.637Z,11.11
2023-03-23T07:57:43.567Z,11.23
2023-03-23T08:02:43.510Z,11.24
2023-03-23T08:07:43.843Z,11.20
2023-03-23T08:12:43.687Z,11.21
2023-03-23T08:17:43.527Z,11.27
2023-03-23T08:27:43.321Z,11.59
2023-03-23T08:32:43.258Z,11.81
2023-03-23T08:37:44.905Z,11.90
2023-03-23T08:42:43.830Z,11.88
2023-03-23T08:47:43.342Z,12.05
2023-03-23T08:52:43.157Z,12.07
2023-03-23T08:57:43.118Z,12.38
2023-03-23T09:02:43.069Z,12.18
2023-03-23T09:07:43.067Z,12.26
2023-03-23T09:12:43.223Z,12.41
2023-03-23T09:17:43.660Z,12.70
2023-03-23T09:22:42.965Z,12.73
2023-03-23T09:27:42.961Z,12.67
2023-03-23T09:32:42.920Z,12.74
2023-03-23T09:37:45.094Z,12.81
2023-03-23T09:42:45.738Z,12.79
2023-03-23T09:47:42.855Z,12.76
2023-03-23T09:52:45.524Z,12.89
2023-03-23T09:57:42.812Z,12.91
2023-03-23T10:02:42.952Z,13.03
2023-03-23T10:07:42.710Z,13.24
2023-03-23T10:12:44.559Z,13.27
2023-03-23T10:17:42.686Z,13.48
2023-03-23T10:22:42.728Z,13.47
2023-03-23T10:27:42.712Z,13.46
2023-03-23T10:32:45.004Z,13.43
2023-03-23T10:37:44.275Z,13.43
2023-03-23T10:42:42.600Z,13.48
2023-03-23T10:47:42.520Z,13.63
2023-03-23T10:52:42.680Z,13.72
2023-03-23T10:57:42.453Z,13.87
2023-03-23T11:02:42.502Z,14.17
2023-03-23T11:07:42.647Z,14.52
2023-03-23T11:12:42.381Z,14.54
2023-03-23T11:17:42.405Z,14.86
2023-03-23T11:22:44.110Z,15.11
2023-03-23T11:27:42.286Z,15.30
2023-03-23T11:32:44.087Z,15.52
2023-03-23T11:37:43.034Z,15.70
2023-03-23T11:42:42.194Z,15.55
2023-03-23T11:47:43.928Z,15.55
2023-03-23T11:52:42.124Z,15.77
2023-03-23T11:57:42.052Z,15.49
2023-03-23T12:02:42.120Z,15.53
2023-03-23T12:07:42.024Z,15.55
2023-03-23T12:12:42.226Z,15.51
2023-03-23T12:17:44.700Z,15.59
2023-03-23T12:22:41.947Z,15.52
2023-03-23T12:27:41.936Z,15.59
2023-03-23T12:32:41.904Z,16.03
2023-03-23T12:37:44.602Z,15.68
2023-03-23T12:42:41.857Z,16.01
2023-03-23T12:47:43.699Z,19.06
2023-03-23T12:52:44.473Z,20.16
2023-03-23T12:57:41.741Z,18.50
2023-03-23T13:02:41.716Z,17.10
2023-03-23T13:07:44.441Z,17.15
2023-03-23T13:12:41.657Z,17.20
2023-03-23T13:17:42.636Z,17.05
2023-03-23T13:22:41.646Z,16.88
2023-03-23T13:27:41.602Z,17.07
2023-03-23T13:32:46.567Z,17.39
2023-03-23T13:37:41.544Z,17.24
2023-03-23T13:42:41.576Z,16.92
2023-03-23T13:47:44.157Z,16.48
2023-03-23T13:52:41.642Z,16.92
2023-03-23T13:57:41.467Z,16.73
2023-03-23T14:02:41.406Z,16.73
2023-03-23T14:07:44.124Z,16.98
2023-03-23T14:12:42.024Z,16.50
2023-03-23T14:17:41.401Z,16.23
2023-03-23T14:22:41.258Z,16.22
2023-03-23T14:27:41.250Z,16.41
2023-03-23T14:32:41.194Z,16.16
2023-03-23T14:37:41.221Z,16.33
2023-03-23T14:42:41.129Z,16.34
2023-03-23T14:47:41.087Z,16.47
2023-03-23T14:52:41.055Z,16.26
2023-03-23T14:57:41.056Z,16.10
2023-03-23T15:02:41.082Z,16.16
2023-03-23T15:07:40.999Z,16.03
2023-03-23T15:12:40.970Z,15.89
2023-03-23T15:17:40.959Z,15.85
2023-03-23T15:22:40.936Z,15.99
2023-03-23T15:27:41.069Z,16.27
2023-03-23T15:32:40.875Z,16.45
2023-03-23T15:37:40.866Z,16.54
2023-03-23T15:42:40.832Z,16.29
2023-03-23T15:47:41.060Z,15.96
2023-03-23T15:52:40.761Z,15.92
2023-03-23T15:57:40.726Z,15.89
2023-03-23T16:02:40.764Z,15.93
2023-03-23T16:07:40.664Z,16.13
2023-03-23T16:12:40.608Z,15.92
2023-03-23T16:17:40.629Z,15.64
2023-03-23T16:22:40.562Z,15.46
2023-03-23T16:27:40.551Z,15.35
2023-03-23T16:37:48.535Z,15.18
2023-03-23T16:42:49.550Z,15.16
2023-03-23T16:47:49.490Z,15.05
2023-03-23T16:52:49.464Z,15.00
2023-03-23T16:57:49.426Z,14.97
2023-03-23T17:02:49.488Z,14.87
2023-03-23T17:07:49.434Z,14.71
2023-03-23T17:12:49.369Z,14.57
2023-03-23T17:17:49.408Z,14.48
2023-03-23T17:22:49.360Z,14.44
2023-03-23T17:27:49.353Z,14.38
2023-03-23T17:32:49.301Z,14.27
2023-03-23T17:37:49.286Z,14.19
2023-03-23T17:42:49.238Z,13.75
2023-03-23T17:47:49.248Z,13.22
2023-03-23T17:52:49.149Z,12.87
2023-03-23T17:57:49.136Z,12.54
2023-03-23T18:02:49.172Z,12.22
2023-03-23T18:07:49.053Z,11.96
2023-03-23T18:12:49.052Z,11.77
2023-03-23T18:17:49.094Z,11.62
2023-03-23T18:22:49.319Z,11.44
2023-03-23T18:27:48.985Z,11.41
2023-03-23T18:32:48.982Z,11.35
2023-03-23T18:37:48.952Z,11.30
2023-03-23T18:42:48.953Z,11.21
2023-03-23T18:47:48.940Z,11.12
2023-03-23T18:52:48.866Z,11.16
2023-03-23T18:57:48.873Z,11.13
2023-03-23T19:02:52.839Z,11.06
2023-03-23T19:07:48.825Z,10.94
2023-03-23T19:12:48.796Z,10.80
2023-03-23T19:17:48.737Z,10.68
2023-03-23T19:22:48.679Z,10.60
2023-03-23T19:28:42.037Z,10.57
2023-03-23T19:32:48.665Z,10.57
2023-03-23T19:37:48.590Z,10.49
2023-03-23T19:42:48.566Z,10.44
2023-03-23T19:47:49.553Z,10.32
2023-03-23T19:52:48.465Z,10.31
2023-03-23T19:57:48.422Z,10.38
2023-03-23T20:02:48.462Z,10.36
2023-03-23T20:07:51.617Z,10.31
2023-03-23T20:12:48.429Z,10.22
2023-03-23T20:17:48.314Z,10.16
2023-03-23T20:22:50.011Z,10.22
2023-03-23T20:27:48.249Z,10.14
2023-03-23T20:32:48.214Z,10.02
2023-03-23T20:37:48.135Z,9.93
2023-03-23T20:42:48.194Z,9.83
2023-03-23T20:47:48.110Z,9.78
2023-03-23T20:52:48.054Z,9.71
2023-03-23T20:57:48.043Z,9.68
2023-03-23T21:02:48.015Z,9.55
2023-03-23T21:07:47.991Z,9.40
2023-03-23T21:12:47.928Z,9.27
2023-03-23T21:17:47.944Z,9.17
2023-03-23T21:22:47.898Z,9.13
2023-03-23T21:27:49.041Z,9.17
2023-03-23T21:32:48.038Z,9.20
2023-03-23T21:37:47.816Z,9.17
2023-03-23T21:42:47.789Z,9.19
2023-03-23T21:47:47.784Z,9.22
2023-03-23T21:52:47.755Z,9.17
2023-03-23T21:57:47.731Z,9.23
2023-03-23T22:02:47.918Z,9.24
2023-03-23T22:07:47.717Z,9.27
2023-03-23T22:12:47.675Z,9.26
2023-03-23T22:17:47.691Z,9.40
2023-03-23T22:22:47.609Z,9.23
2023-03-23T22:27:47.777Z,9.23
2023-03-23T22:32:47.834Z,9.15
2023-03-23T22:37:47.874Z,8.97
2023-03-23T22:42:47.459Z,9.15
2023-03-23T22:47:47.474Z,9.19
2023-03-23T22:52:47.387Z,9.01
2023-03-23T22:57:47.337Z,8.89
2023-03-23T23:02:47.358Z,8.89
2023-03-23T23:07:47.299Z,9.16
2023-03-23T23:12:47.259Z,9.19
2023-03-23T23:17:47.256Z,9.10
2023-03-23T23:22:47.243Z,8.96
2023-03-23T23:27:47.153Z,8.88
2023-03-23T23:32:47.196Z,8.85
2023-03-23T23:37:47.101Z,8.89
2023-03-23T23:42:47.098Z,8.98
2023-03-23T23:47:47.077Z,9.22
2023-03-23T23:52:47.010Z,9.48
2023-03-23T23:57:46.970Z,9.67
